x

Ilm2 - 5 Miles Se Of Wrightsville Beach, Nc (41038) Weather Station

2:08am - Fri 28th Apr 2017 All times are EDT. -4 hours from GMT.

  • Wind
    11mph, 18mph gusts
  • Sea Temp 71°f
  • Air Temp 73°f
  • Sea Pressure 1015mb
  • Ilm2 - 5 Miles Se Of Wrightsville Beach, Nc
  • Ilm2 - 5 Miles Se Of Wrightsville Beach, Nc

More Historic Weather Station data

Upgrade to MSW Pro to gain access to the past 30 days of data for over 8000 Wavebouys and Weather Stations around the globe.

Join Pro

Comparision Forecast

View Surf forecast
   
Fri 04/28 2:08am 11 18 mph 1015mb 71f 73f
1:08am 16 22 mph 1014.4mb 71f 73f
12:08am 13 18 mph 1014.9mb 71f 73f
Thu 04/27 11:08pm 9 11 mph 1015.3mb 71f 72f
10:08pm 4 9 mph 1014.9mb 71f 72f
9:08pm 9 16 mph 1013.5mb 71f 73f
8:08pm 13 18 mph 1012.8mb 71f 72f
7:08pm 7 11 mph 1013.3mb 71f 72f
6:08pm 9 13 mph 1013.6mb 72f 72f
5:08pm 11 16 mph 1013.2mb 72f 73f
4:08pm 11 18 mph 1013.2mb 71f 73f
3:08pm 11 18 mph 1013.5mb 71f 73f
2:08pm 11 18 mph 1013.4mb 71f 72f
1:08pm 11 18 mph 1013.3mb 71f 72f
12:08pm 13 22 mph 1014.1mb 71f 72f
11:08am 9 16 mph 1014.7mb 71f 72f
10:08am 11 18 mph 1014.7mb 70f 72f
9:08am 7 11 mph 1014mb 70f 71f
8:08am 7 9 mph 1013mb 70f 71f
7:08am 4 7 mph 1012.6mb 70f 70f
6:08am 4 9 mph 1012.6mb 70f 70f
5:08am 4 7 mph 1012.3mb 70f 70f
4:08am 7 11 mph 1011.9mb 70f 70f
3:08am 11 13 mph 1012mb 70f 70f
2:08am  -  mph 1012.1mb 70f 71f
1:08am 13 18 mph 1012.2mb 70f 71f
12:08am 13 18 mph 1011.8mb 70f 71f
Wed 04/26 11:08pm 11 20 mph 1011.7mb 70f 71f
10:08pm 11 18 mph 1011.5mb 70f 71f
9:08pm 11 18 mph 1011mb 70f 71f
8:08pm 11 18 mph 1010.6mb 70f 71f
7:08pm 7 13 mph 1010.3mb 71f 71f
6:08pm 11 16 mph 1010.1mb 71f 71f
5:08pm 11 20 mph 1009.7mb 71f 71f
4:08pm 11 20 mph 1009.7mb 71f 71f
3:08pm 13 20 mph 1009.5mb 71f 71f
2:08pm 9 11 mph 1010.4mb 71f 71f
1:08pm 13 18 mph 1011mb 71f 69f
12:08pm 4 9 mph 1011.5mb 70f 70f
11:08am 9 11 mph 1011.4mb 70f 68f
10:08am 7 11 mph 1010.8mb 70f 67f
9:08am 7 11 mph 1010.1mb 69f 65f
8:08am 7 11 mph 1009.6mb 69f 64f
7:08am 9 16 mph 1008.7mb 69f 64f
6:08am 13 22 mph 1007.8mb 69f 63f
5:08am 16 20 mph 1007.6mb 70f 64f
4:08am 13 20 mph 1007.3mb 70f 64f
3:08am 16 20 mph 1007.4mb 70f 64f
2:08am 16 20 mph 1007.3mb 70f 64f
1:08am 18 22 mph 1007.4mb 70f 64f
12:08am 16 22 mph 1007.2mb 70f 64f
Tue 04/25 11:08pm 18 25 mph 1007.1mb 70f 64f
10:08pm 16 22 mph 1006.7mb 70f 65f
9:08pm 13 20 mph 1006mb 70f 66f
8:08pm 18 25 mph 1005.2mb 70f 67f
7:08pm 18 29 mph 1004.3mb 70f 67f
6:08pm 18 25 mph 1003.2mb 70f 68f
5:08pm 18 27 mph 1003.1mb 70f 68f
4:08pm 18 31 mph 1003mb 70f 68f
3:08pm 13 20 mph 1003mb 70f 69f
2:08pm 11 16 mph 1003.3mb 70f 69f
1:08pm 11 18 mph 1003.1mb 69f 68f
12:08pm 13 18 mph 1003.2mb 69f 67f
11:08am 9 13 mph 1003.4mb 69f 66f
10:08am 11 16 mph 1003.3mb 69f 66f
9:08am 18 25 mph 1002.8mb 69f 64f
8:08am 16 22 mph 1002mb 69f 67f
7:08am 9 16 mph 1001.3mb 69f 67f
6:08am 11 18 mph 1000.7mb 69f 68f
5:08am 7 11 mph 1000.4mb 69f 68f
4:08am 7 11 mph 1000.8mb 69f 68f
3:08am 4 11 mph 1001.4mb 69f 68f
2:08am 9 13 mph 1002.3mb 69f 68f
1:08am 11 18 mph 1002.7mb 69f 68f
12:08am 13 20 mph 1003mb 69f 67f
Mon 04/24 11:08pm 13 20 mph 1003.4mb 69f 67f
10:08pm 16 22 mph 1003.5mb 69f 67f
9:08pm 11 20 mph 1003.7mb 69f 68f
8:08pm 4 11 mph 1003.2mb 69f 66f
7:08pm 7 13 mph 1003.5mb 69f 66f
6:08pm 9 16 mph 1002.9mb 69f 67f
5:08pm 18 34 mph 1003.6mb 69f 68f
4:08pm 16 25 mph 1004.3mb 69f 68f
3:08pm 18 34 mph 1005.1mb 69f 68f
2:08pm 13 25 mph 1005.9mb 69f 69f
1:08pm 16 27 mph 1007mb 69f 68f
12:08pm 13 20 mph 1008mb 69f 68f
11:08am 11 16 mph 1008.5mb 69f 67f
10:08am 13 20 mph 1008.5mb 69f 67f
9:08am 18 34 mph 1009.2mb 69f 69f
8:08am 13 22 mph 1009mb 69f 67f